sensor_id;sensor_type;location;lat;lon;timestamp;P1;durP1;ratioP1;P2;durP2;ratioP2
9124;SDS011;4597;48.730;9.114;2022-12-20T00:01:12;19.87;;;15.57;;
9124;SDS011;4597;48.730;9.114;2022-12-20T00:03:39;20.50;;;15.17;;
9124;SDS011;4597;48.730;9.114;2022-12-20T00:06:06;17.63;;;13.33;;
9124;SDS011;4597;48.730;9.114;2022-12-20T00:08:33;17.63;;;13.10;;
9124;SDS011;4597;48.730;9.114;2022-12-20T00:11:02;18.33;;;14.03;;
9124;SDS011;4597;48.730;9.114;2022-12-20T00:13:29;18.47;;;13.67;;
9124;SDS011;4597;48.730;9.114;2022-12-20T00:16:04;20.37;;;14.83;;
9124;SDS011;4597;48.730;9.114;2022-12-20T00:18:32;16.80;;;13.70;;
9124;SDS011;4597;48.730;9.114;2022-12-20T00:21:01;18.47;;;13.87;;
9124;SDS011;4597;48.730;9.114;2022-12-20T00:23:27;17.50;;;12.83;;
9124;SDS011;4597;48.730;9.114;2022-12-20T00:25:58;16.40;;;12.90;;
9124;SDS011;4597;48.730;9.114;2022-12-20T00:28:25;17.40;;;12.23;;
9124;SDS011;4597;48.730;9.114;2022-12-20T00:30:54;18.40;;;13.03;;
9124;SDS011;4597;48.730;9.114;2022-12-20T00:33:20;16.13;;;13.07;;
9124;SDS011;4597;48.730;9.114;2022-12-20T00:35:46;18.87;;;14.10;;
9124;SDS011;4597;48.730;9.114;2022-12-20T00:38:11;16.23;;;12.60;;
9124;SDS011;4597;48.730;9.114;2022-12-20T00:40:37;16.80;;;13.60;;
9124;SDS011;4597;48.730;9.114;2022-12-20T00:43:03;16.93;;;13.50;;
9124;SDS011;4597;48.730;9.114;2022-12-20T00:45:29;15.17;;;12.57;;
9124;SDS011;4597;48.730;9.114;2022-12-20T00:47:54;17.07;;;13.37;;
9124;SDS011;4597;48.730;9.114;2022-12-20T00:50:20;19.10;;;14.53;;
9124;SDS011;4597;48.730;9.114;2022-12-20T00:52:46;17.50;;;12.70;;
9124;SDS011;4597;48.730;9.114;2022-12-20T00:55:11;20.10;;;15.57;;
9124;SDS011;4597;48.730;9.114;2022-12-20T00:57:37;21.23;;;15.83;;
9124;SDS011;4597;48.730;9.114;2022-12-20T01:00:02;17.43;;;14.10;;
9124;SDS011;4597;48.730;9.114;2022-12-20T01:02:29;18.07;;;14.27;;
9124;SDS011;4597;48.730;9.114;2022-12-20T01:04:54;16.27;;;12.73;;
9124;SDS011;4597;48.730;9.114;2022-12-20T01:07:20;19.33;;;13.90;;
9124;SDS011;4597;48.730;9.114;2022-12-20T01:09:47;21.30;;;15.13;;
9124;SDS011;4597;48.730;9.114;2022-12-20T01:12:13;19.13;;;14.57;;
9124;SDS011;4597;48.730;9.114;2022-12-20T01:14:38;23.17;;;15.83;;
9124;SDS011;4597;48.730;9.114;2022-12-20T01:17:04;22.50;;;16.50;;
9124;SDS011;4597;48.730;9.114;2022-12-20T01:19:29;20.10;;;15.97;;
9124;SDS011;4597;48.730;9.114;2022-12-20T01:21:55;21.67;;;15.73;;
9124;SDS011;4597;48.730;9.114;2022-12-20T01:24:20;19.67;;;15.57;;
9124;SDS011;4597;48.730;9.114;2022-12-20T01:26:46;19.93;;;15.60;;
9124;SDS011;4597;48.730;9.114;2022-12-20T01:29:12;18.57;;;13.73;;
9124;SDS011;4597;48.730;9.114;2022-12-20T01:31:38;21.43;;;14.50;;
9124;SDS011;4597;48.730;9.114;2022-12-20T01:34:04;19.83;;;14.27;;
9124;SDS011;4597;48.730;9.114;2022-12-20T01:36:31;20.37;;;13.90;;
9124;SDS011;4597;48.730;9.114;2022-12-20T01:38:59;22.10;;;14.73;;
9124;SDS011;4597;48.730;9.114;2022-12-20T01:41:26;16.10;;;13.17;;
9124;SDS011;4597;48.730;9.114;2022-12-20T01:43:54;17.37;;;13.70;;
9124;SDS011;4597;48.730;9.114;2022-12-20T01:46:49;17.27;;;13.20;;
9124;SDS011;4597;48.730;9.114;2022-12-20T01:49:25;17.47;;;12.53;;
9124;SDS011;4597;48.730;9.114;2022-12-20T01:52:02;15.97;;;13.30;;
9124;SDS011;4597;48.730;9.114;2022-12-20T01:55:05;18.13;;;13.67;;
9124;SDS011;4597;48.730;9.114;2022-12-20T01:57:41;21.97;;;15.20;;
9124;SDS011;4597;48.730;9.114;2022-12-20T02:00:13;22.97;;;15.57;;
9124;SDS011;4597;48.730;9.114;2022-12-20T02:02:40;22.37;;;15.77;;
9124;SDS011;4597;48.730;9.114;2022-12-20T02:05:07;22.53;;;15.17;;
9124;SDS011;4597;48.730;9.114;2022-12-20T02:07:33;19.50;;;14.00;;
9124;SDS011;4597;48.730;9.114;2022-12-20T02:10:02;19.80;;;14.17;;
9124;SDS011;4597;48.730;9.114;2022-12-20T02:12:36;20.17;;;13.87;;
9124;SDS011;4597;48.730;9.114;2022-12-20T02:15:11;22.07;;;14.87;;
9124;SDS011;4597;48.730;9.114;2022-12-20T02:17:56;20.63;;;14.40;;
9124;SDS011;4597;48.730;9.114;2022-12-20T02:26:40;16.03;;;13.03;;
9124;SDS011;4597;48.730;9.114;2022-12-20T02:29:27;19.20;;;13.13;;
9124;SDS011;4597;48.730;9.114;2022-12-20T02:32:02;15.03;;;12.30;;
9124;SDS011;4597;48.730;9.114;2022-12-20T02:34:38;17.93;;;12.90;;
9124;SDS011;4597;48.730;9.114;2022-12-20T02:37:05;18.47;;;13.40;;
9124;SDS011;4597;48.730;9.114;2022-12-20T02:39:31;18.77;;;14.57;;
9124;SDS011;4597;48.730;9.114;2022-12-20T02:42:11;18.07;;;13.03;;
9124;SDS011;4597;48.730;9.114;2022-12-20T02:44:41;16.90;;;12.53;;
9124;SDS011;4597;48.730;9.114;2022-12-20T02:47:36;16.93;;;11.67;;
9124;SDS011;4597;48.730;9.114;2022-12-20T02:50:05;16.37;;;11.83;;
9124;SDS011;4597;48.730;9.114;2022-12-20T02:52:32;15.13;;;11.70;;
9124;SDS011;4597;48.730;9.114;2022-12-20T02:54:58;17.37;;;11.57;;
9124;SDS011;4597;48.730;9.114;2022-12-20T02:57:27;14.40;;;12.00;;
9124;SDS011;4597;48.730;9.114;2022-12-20T03:00:04;14.33;;;10.47;;
9124;SDS011;4597;48.730;9.114;2022-12-20T03:02:30;14.50;;;10.93;;
9124;SDS011;4597;48.730;9.114;2022-12-20T03:05:17;11.57;;;10.33;;
9124;SDS011;4597;48.730;9.114;2022-12-20T03:07:46;13.23;;;10.53;;
9124;SDS011;4597;48.730;9.114;2022-12-20T03:10:11;11.73;;;10.30;;
9124;SDS011;4597;48.730;9.114;2022-12-20T03:12:37;13.63;;;10.63;;
9124;SDS011;4597;48.730;9.114;2022-12-20T03:15:02;14.47;;;10.70;;
9124;SDS011;4597;48.730;9.114;2022-12-20T03:17:28;14.53;;;10.83;;
9124;SDS011;4597;48.730;9.114;2022-12-20T03:19:54;13.83;;;10.90;;
9124;SDS011;4597;48.730;9.114;2022-12-20T03:22:19;14.43;;;10.67;;
9124;SDS011;4597;48.730;9.114;2022-12-20T03:24:47;10.63;;;9.47;;
9124;SDS011;4597;48.730;9.114;2022-12-20T03:27:13;13.93;;;10.37;;
9124;SDS011;4597;48.730;9.114;2022-12-20T03:29:39;11.03;;;9.10;;
9124;SDS011;4597;48.730;9.114;2022-12-20T03:32:05;11.70;;;9.20;;
9124;SDS011;4597;48.730;9.114;2022-12-20T03:34:30;9.80;;;8.73;;
9124;SDS011;4597;48.730;9.114;2022-12-20T03:36:56;6.23;;;5.60;;
9124;SDS011;4597;48.730;9.114;2022-12-20T03:39:21;6.27;;;5.27;;
9124;SDS011;4597;48.730;9.114;2022-12-20T03:41:47;6.93;;;6.23;;
9124;SDS011;4597;48.730;9.114;2022-12-20T03:44:12;9.60;;;7.30;;
9124;SDS011;4597;48.730;9.114;2022-12-20T03:46:38;8.87;;;7.80;;
9124;SDS011;4597;48.730;9.114;2022-12-20T03:49:04;8.73;;;7.83;;
9124;SDS011;4597;48.730;9.114;2022-12-20T03:51:29;8.40;;;7.03;;
9124;SDS011;4597;48.730;9.114;2022-12-20T03:53:55;10.47;;;7.83;;
9124;SDS011;4597;48.730;9.114;2022-12-20T03:56:20;8.90;;;8.00;;
9124;SDS011;4597;48.730;9.114;2022-12-20T03:58:46;11.40;;;9.27;;
9124;SDS011;4597;48.730;9.114;2022-12-20T04:01:15;10.17;;;8.70;;
9124;SDS011;4597;48.730;9.114;2022-12-20T04:03:42;9.83;;;8.73;;
9124;SDS011;4597;48.730;9.114;2022-12-20T04:06:08;11.90;;;9.47;;
9124;SDS011;4597;48.730;9.114;2022-12-20T04:08:33;11.73;;;10.47;;
9124;SDS011;4597;48.730;9.114;2022-12-20T04:10:59;12.03;;;10.13;;
9124;SDS011;4597;48.730;9.114;2022-12-20T04:13:46;12.47;;;9.50;;
9124;SDS011;4597;48.730;9.114;2022-12-20T04:16:14;11.37;;;9.60;;
9124;SDS011;4597;48.730;9.114;2022-12-20T04:18:41;12.37;;;9.17;;
9124;SDS011;4597;48.730;9.114;2022-12-20T04:21:07;11.33;;;9.23;;
9124;SDS011;4597;48.730;9.114;2022-12-20T04:23:36;15.13;;;10.30;;
9124;SDS011;4597;48.730;9.114;2022-12-20T04:28:40;10.97;;;9.60;;
9124;SDS011;4597;48.730;9.114;2022-12-20T04:31:06;14.00;;;10.60;;
9124;SDS011;4597;48.730;9.114;2022-12-20T04:33:31;13.57;;;10.17;;
9124;SDS011;4597;48.730;9.114;2022-12-20T04:35:57;12.60;;;10.20;;
9124;SDS011;4597;48.730;9.114;2022-12-20T04:38:23;11.53;;;9.93;;
9124;SDS011;4597;48.730;9.114;2022-12-20T04:40:48;11.30;;;9.70;;
9124;SDS011;4597;48.730;9.114;2022-12-20T04:43:15;12.07;;;9.33;;
9124;SDS011;4597;48.730;9.114;2022-12-20T04:45:41;11.97;;;9.60;;
9124;SDS011;4597;48.730;9.114;2022-12-20T04:48:08;11.20;;;9.77;;
9124;SDS011;4597;48.730;9.114;2022-12-20T04:50:34;12.57;;;10.07;;
9124;SDS011;4597;48.730;9.114;2022-12-20T04:52:59;11.17;;;10.00;;
9124;SDS011;4597;48.730;9.114;2022-12-20T04:55:43;14.13;;;10.20;;
9124;SDS011;4597;48.730;9.114;2022-12-20T04:58:09;12.87;;;10.50;;
9124;SDS011;4597;48.730;9.114;2022-12-20T05:00:34;13.33;;;10.47;;
9124;SDS011;4597;48.730;9.114;2022-12-20T05:03:00;12.00;;;10.33;;
9124;SDS011;4597;48.730;9.114;2022-12-20T05:05:25;11.03;;;9.77;;
9124;SDS011;4597;48.730;9.114;2022-12-20T05:07:51;12.57;;;10.37;;
9124;SDS011;4597;48.730;9.114;2022-12-20T05:10:17;12.07;;;10.20;;
9124;SDS011;4597;48.730;9.114;2022-12-20T05:12:43;12.80;;;9.90;;
9124;SDS011;4597;48.730;9.114;2022-12-20T05:15:09;12.77;;;10.60;;
9124;SDS011;4597;48.730;9.114;2022-12-20T05:17:35;13.07;;;10.57;;
9124;SDS011;4597;48.730;9.114;2022-12-20T05:20:00;14.27;;;11.10;;
9124;SDS011;4597;48.730;9.114;2022-12-20T05:22:26;12.63;;;10.73;;
9124;SDS011;4597;48.730;9.114;2022-12-20T05:25:10;15.27;;;11.17;;
9124;SDS011;4597;48.730;9.114;2022-12-20T05:27:55;10.77;;;9.57;;
9124;SDS011;4597;48.730;9.114;2022-12-20T05:30:21;14.80;;;11.20;;
9124;SDS011;4597;48.730;9.114;2022-12-20T05:32:47;13.67;;;11.23;;
9124;SDS011;4597;48.730;9.114;2022-12-20T05:35:13;12.50;;;10.30;;
9124;SDS011;4597;48.730;9.114;2022-12-20T05:37:38;12.73;;;10.83;;
9124;SDS011;4597;48.730;9.114;2022-12-20T05:40:04;13.30;;;10.53;;
9124;SDS011;4597;48.730;9.114;2022-12-20T05:42:30;11.97;;;10.00;;
9124;SDS011;4597;48.730;9.114;2022-12-20T05:44:56;13.67;;;11.13;;
9124;SDS011;4597;48.730;9.114;2022-12-20T05:47:22;12.43;;;10.83;;
9124;SDS011;4597;48.730;9.114;2022-12-20T05:49:48;13.00;;;10.20;;
9124;SDS011;4597;48.730;9.114;2022-12-20T05:52:14;13.00;;;10.20;;
9124;SDS011;4597;48.730;9.114;2022-12-20T05:54:39;13.33;;;10.23;;
9124;SDS011;4597;48.730;9.114;2022-12-20T05:57:05;13.67;;;10.00;;
9124;SDS011;4597;48.730;9.114;2022-12-20T05:59:30;11.70;;;9.20;;
9124;SDS011;4597;48.730;9.114;2022-12-20T06:01:56;13.23;;;9.90;;
9124;SDS011;4597;48.730;9.114;2022-12-20T06:04:21;11.03;;;9.70;;
9124;SDS011;4597;48.730;9.114;2022-12-20T06:06:47;11.17;;;9.53;;
9124;SDS011;4597;48.730;9.114;2022-12-20T06:09:12;10.83;;;9.30;;
9124;SDS011;4597;48.730;9.114;2022-12-20T06:11:38;11.90;;;10.00;;
9124;SDS011;4597;48.730;9.114;2022-12-20T06:14:04;11.20;;;10.00;;
9124;SDS011;4597;48.730;9.114;2022-12-20T06:16:29;10.90;;;8.90;;
9124;SDS011;4597;48.730;9.114;2022-12-20T06:18:55;10.97;;;9.70;;
9124;SDS011;4597;48.730;9.114;2022-12-20T06:21:21;15.87;;;12.53;;
9124;SDS011;4597;48.730;9.114;2022-12-20T06:23:46;14.73;;;11.23;;
9124;SDS011;4597;48.730;9.114;2022-12-20T06:26:12;17.20;;;14.20;;
9124;SDS011;4597;48.730;9.114;2022-12-20T06:28:38;15.23;;;12.63;;
9124;SDS011;4597;48.730;9.114;2022-12-20T06:31:07;15.77;;;13.47;;
9124;SDS011;4597;48.730;9.114;2022-12-20T06:33:35;16.13;;;13.73;;
9124;SDS011;4597;48.730;9.114;2022-12-20T06:36:01;16.63;;;14.80;;
9124;SDS011;4597;48.730;9.114;2022-12-20T06:38:27;17.50;;;14.17;;
9124;SDS011;4597;48.730;9.114;2022-12-20T06:40:53;16.47;;;13.97;;
9124;SDS011;4597;48.730;9.114;2022-12-20T06:43:18;17.27;;;13.83;;
9124;SDS011;4597;48.730;9.114;2022-12-20T06:45:44;14.23;;;12.73;;
9124;SDS011;4597;48.730;9.114;2022-12-20T06:48:10;15.60;;;12.60;;
9124;SDS011;4597;48.730;9.114;2022-12-20T06:50:36;13.80;;;12.37;;
9124;SDS011;4597;48.730;9.114;2022-12-20T06:53:03;15.07;;;12.67;;
9124;SDS011;4597;48.730;9.114;2022-12-20T06:55:28;13.50;;;11.27;;
9124;SDS011;4597;48.730;9.114;2022-12-20T06:57:54;17.53;;;13.27;;
9124;SDS011;4597;48.730;9.114;2022-12-20T07:00:20;19.33;;;13.27;;
9124;SDS011;4597;48.730;9.114;2022-12-20T07:02:46;20.37;;;16.13;;
9124;SDS011;4597;48.730;9.114;2022-12-20T07:05:12;18.77;;;14.90;;
9124;SDS011;4597;48.730;9.114;2022-12-20T07:07:37;18.33;;;14.30;;
9124;SDS011;4597;48.730;9.114;2022-12-20T07:10:03;17.33;;;13.90;;
9124;SDS011;4597;48.730;9.114;2022-12-20T07:12:29;18.40;;;14.10;;
9124;SDS011;4597;48.730;9.114;2022-12-20T07:14:55;17.07;;;14.10;;
9124;SDS011;4597;48.730;9.114;2022-12-20T07:17:20;17.20;;;13.80;;
9124;SDS011;4597;48.730;9.114;2022-12-20T07:19:46;16.17;;;13.60;;
9124;SDS011;4597;48.730;9.114;2022-12-20T07:22:11;19.40;;;14.90;;
9124;SDS011;4597;48.730;9.114;2022-12-20T07:24:37;18.10;;;13.67;;
9124;SDS011;4597;48.730;9.114;2022-12-20T07:27:03;15.67;;;13.17;;
9124;SDS011;4597;48.730;9.114;2022-12-20T07:29:28;16.63;;;13.17;;
9124;SDS011;4597;48.730;9.114;2022-12-20T07:31:54;16.97;;;13.00;;
9124;SDS011;4597;48.730;9.114;2022-12-20T07:34:19;18.87;;;15.00;;
9124;SDS011;4597;48.730;9.114;2022-12-20T07:36:45;24.17;;;14.83;;
9124;SDS011;4597;48.730;9.114;2022-12-20T07:39:11;19.50;;;14.70;;
9124;SDS011;4597;48.730;9.114;2022-12-20T07:41:36;18.17;;;14.37;;
9124;SDS011;4597;48.730;9.114;2022-12-20T07:44:02;14.57;;;12.37;;
9124;SDS011;4597;48.730;9.114;2022-12-20T07:46:27;16.90;;;12.47;;
9124;SDS011;4597;48.730;9.114;2022-12-20T07:48:53;13.73;;;11.33;;
9124;SDS011;4597;48.730;9.114;2022-12-20T07:51:27;15.43;;;12.27;;
9124;SDS011;4597;48.730;9.114;2022-12-20T07:54:10;16.00;;;11.93;;
9124;SDS011;4597;48.730;9.114;2022-12-20T07:56:41;15.27;;;12.73;;
9124;SDS011;4597;48.730;9.114;2022-12-20T07:59:11;13.47;;;11.07;;
9124;SDS011;4597;48.730;9.114;2022-12-20T08:01:39;18.40;;;13.10;;
9124;SDS011;4597;48.730;9.114;2022-12-20T08:04:13;16.90;;;13.33;;
9124;SDS011;4597;48.730;9.114;2022-12-20T08:06:42;15.97;;;12.97;;
9124;SDS011;4597;48.730;9.114;2022-12-20T08:09:08;20.77;;;14.00;;
9124;SDS011;4597;48.730;9.114;2022-12-20T08:11:37;16.33;;;14.10;;
9124;SDS011;4597;48.730;9.114;2022-12-20T08:14:04;17.53;;;15.03;;
9124;SDS011;4597;48.730;9.114;2022-12-20T08:16:32;18.27;;;14.03;;
9124;SDS011;4597;48.730;9.114;2022-12-20T08:18:57;17.17;;;13.83;;
9124;SDS011;4597;48.730;9.114;2022-12-20T08:21:23;16.23;;;13.03;;
9124;SDS011;4597;48.730;9.114;2022-12-20T08:23:49;16.40;;;13.97;;
9124;SDS011;4597;48.730;9.114;2022-12-20T08:26:14;17.57;;;13.23;;
9124;SDS011;4597;48.730;9.114;2022-12-20T08:28:40;17.23;;;13.23;;
9124;SDS011;4597;48.730;9.114;2022-12-20T08:31:06;20.10;;;13.57;;
9124;SDS011;4597;48.730;9.114;2022-12-20T08:33:33;15.60;;;13.90;;
9124;SDS011;4597;48.730;9.114;2022-12-20T08:36:00;17.57;;;14.27;;
9124;SDS011;4597;48.730;9.114;2022-12-20T08:38:28;17.43;;;13.53;;
9124;SDS011;4597;48.730;9.114;2022-12-20T08:41:01;15.83;;;13.83;;
9124;SDS011;4597;48.730;9.114;2022-12-20T08:43:32;18.97;;;13.83;;
9124;SDS011;4597;48.730;9.114;2022-12-20T08:45:58;23.20;;;16.67;;
9124;SDS011;4597;48.730;9.114;2022-12-20T08:48:24;19.33;;;15.27;;
9124;SDS011;4597;48.730;9.114;2022-12-20T08:50:55;21.07;;;16.80;;
9124;SDS011;4597;48.730;9.114;2022-12-20T08:53:21;28.53;;;22.20;;
9124;SDS011;4597;48.730;9.114;2022-12-20T08:55:47;37.37;;;25.67;;
9124;SDS011;4597;48.730;9.114;2022-12-20T08:58:12;35.50;;;27.40;;
9124;SDS011;4597;48.730;9.114;2022-12-20T09:00:39;25.13;;;19.93;;
9124;SDS011;4597;48.730;9.114;2022-12-20T09:03:05;31.07;;;24.73;;
9124;SDS011;4597;48.730;9.114;2022-12-20T09:05:31;31.20;;;23.67;;
9124;SDS011;4597;48.730;9.114;2022-12-20T09:07:57;26.37;;;20.33;;
9124;SDS011;4597;48.730;9.114;2022-12-20T09:10:22;30.97;;;22.70;;
9124;SDS011;4597;48.730;9.114;2022-12-20T09:12:48;24.97;;;19.23;;
9124;SDS011;4597;48.730;9.114;2022-12-20T09:15:13;24.63;;;20.30;;
9124;SDS011;4597;48.730;9.114;2022-12-20T09:17:39;26.30;;;20.20;;
9124;SDS011;4597;48.730;9.114;2022-12-20T09:20:05;24.80;;;19.20;;
9124;SDS011;4597;48.730;9.114;2022-12-20T09:22:31;22.87;;;18.53;;
9124;SDS011;4597;48.730;9.114;2022-12-20T09:24:56;22.00;;;18.00;;
9124;SDS011;4597;48.730;9.114;2022-12-20T09:27:22;22.07;;;18.00;;
9124;SDS011;4597;48.730;9.114;2022-12-20T09:29:47;20.33;;;15.80;;
9124;SDS011;4597;48.730;9.114;2022-12-20T09:32:13;17.03;;;14.77;;
9124;SDS011;4597;48.730;9.114;2022-12-20T09:34:38;18.47;;;14.50;;
9124;SDS011;4597;48.730;9.114;2022-12-20T09:37:04;13.93;;;12.33;;
9124;SDS011;4597;48.730;9.114;2022-12-20T09:39:30;18.43;;;13.70;;
9124;SDS011;4597;48.730;9.114;2022-12-20T09:41:56;19.67;;;14.43;;
9124;SDS011;4597;48.730;9.114;2022-12-20T09:46:54;5.50;;;4.80;;
9124;SDS011;4597;48.730;9.114;2022-12-20T09:49:32;8.27;;;4.30;;
9124;SDS011;4597;48.730;9.114;2022-12-20T10:00:45;5.60;;;5.03;;
9124;SDS011;4597;48.730;9.114;2022-12-20T10:03:20;5.60;;;5.03;;
9124;SDS011;4597;48.730;9.114;2022-12-20T10:05:51;6.73;;;5.57;;
9124;SDS011;4597;48.730;9.114;2022-12-20T10:08:23;5.93;;;5.43;;
9124;SDS011;4597;48.730;9.114;2022-12-20T10:11:05;5.50;;;5.00;;
9124;SDS011;4597;48.730;9.114;2022-12-20T10:14:02;6.20;;;5.40;;
9124;SDS011;4597;48.730;9.114;2022-12-20T10:16:49;15.30;;;12.70;;
9124;SDS011;4597;48.730;9.114;2022-12-20T10:22:35;17.10;;;12.90;;
9124;SDS011;4597;48.730;9.114;2022-12-20T10:25:14;16.83;;;13.00;;
9124;SDS011;4597;48.730;9.114;2022-12-20T10:27:40;16.73;;;14.43;;
9124;SDS011;4597;48.730;9.114;2022-12-20T10:30:18;16.87;;;14.03;;
9124;SDS011;4597;48.730;9.114;2022-12-20T10:32:46;15.63;;;13.00;;
9124;SDS011;4597;48.730;9.114;2022-12-20T10:37:44;16.90;;;11.30;;
9124;SDS011;4597;48.730;9.114;2022-12-20T10:40:29;12.00;;;10.73;;
9124;SDS011;4597;48.730;9.114;2022-12-20T10:42:57;11.67;;;10.47;;
9124;SDS011;4597;48.730;9.114;2022-12-20T10:45:34;11.63;;;10.30;;
9124;SDS011;4597;48.730;9.114;2022-12-20T10:48:03;12.73;;;11.43;;
9124;SDS011;4597;48.730;9.114;2022-12-20T10:50:30;14.43;;;10.30;;
9124;SDS011;4597;48.730;9.114;2022-12-20T10:53:16;12.27;;;10.90;;
9124;SDS011;4597;48.730;9.114;2022-12-20T10:55:44;13.33;;;10.57;;
9124;SDS011;4597;48.730;9.114;2022-12-20T10:58:15;12.90;;;11.17;;
9124;SDS011;4597;48.730;9.114;2022-12-20T11:01:03;12.87;;;11.57;;
9124;SDS011;4597;48.730;9.114;2022-12-20T11:03:48;15.30;;;12.10;;
9124;SDS011;4597;48.730;9.114;2022-12-20T11:06:49;14.20;;;12.17;;
9124;SDS011;4597;48.730;9.114;2022-12-20T11:09:27;15.73;;;13.43;;
9124;SDS011;4597;48.730;9.114;2022-12-20T11:11:58;19.27;;;15.47;;
9124;SDS011;4597;48.730;9.114;2022-12-20T11:14:35;22.43;;;18.17;;
9124;SDS011;4597;48.730;9.114;2022-12-20T11:17:12;20.37;;;17.33;;
9124;SDS011;4597;48.730;9.114;2022-12-20T11:22:33;21.30;;;16.80;;
9124;SDS011;4597;48.730;9.114;2022-12-20T11:33:34;18.50;;;15.20;;
9124;SDS011;4597;48.730;9.114;2022-12-20T11:36:50;21.43;;;16.40;;
9124;SDS011;4597;48.730;9.114;2022-12-20T11:42:20;17.53;;;13.97;;
9124;SDS011;4597;48.730;9.114;2022-12-20T11:45:14;10.77;;;9.20;;
9124;SDS011;4597;48.730;9.114;2022-12-20T11:48:28;14.37;;;12.83;;
9124;SDS011;4597;48.730;9.114;2022-12-20T11:56:20;21.83;;;16.53;;
9124;SDS011;4597;48.730;9.114;2022-12-20T11:58:50;25.20;;;19.63;;
9124;SDS011;4597;48.730;9.114;2022-12-20T12:01:26;21.50;;;17.57;;
9124;SDS011;4597;48.730;9.114;2022-12-20T12:04:03;16.30;;;13.90;;
9124;SDS011;4597;48.730;9.114;2022-12-20T12:06:42;19.87;;;14.90;;
9124;SDS011;4597;48.730;9.114;2022-12-20T12:09:14;19.30;;;15.10;;
9124;SDS011;4597;48.730;9.114;2022-12-20T12:11:51;16.53;;;13.53;;
9124;SDS011;4597;48.730;9.114;2022-12-20T12:17:22;15.80;;;12.73;;
9124;SDS011;4597;48.730;9.114;2022-12-20T12:20:32;17.43;;;13.60;;
9124;SDS011;4597;48.730;9.114;2022-12-20T12:23:05;15.30;;;11.87;;
9124;SDS011;4597;48.730;9.114;2022-12-20T12:25:40;10.80;;;8.23;;
9124;SDS011;4597;48.730;9.114;2022-12-20T12:28:06;10.50;;;9.03;;
9124;SDS011;4597;48.730;9.114;2022-12-20T12:30:39;9.53;;;7.70;;
9124;SDS011;4597;48.730;9.114;2022-12-20T12:33:11;10.00;;;7.90;;
9124;SDS011;4597;48.730;9.114;2022-12-20T12:41:25;8.93;;;8.00;;
9124;SDS011;4597;48.730;9.114;2022-12-20T12:46:54;9.57;;;8.47;;
9124;SDS011;4597;48.730;9.114;2022-12-20T12:49:26;11.13;;;8.63;;
9124;SDS011;4597;48.730;9.114;2022-12-20T12:51:54;9.50;;;8.53;;
9124;SDS011;4597;48.730;9.114;2022-12-20T12:54:25;9.37;;;8.40;;
9124;SDS011;4597;48.730;9.114;2022-12-20T12:56:52;8.17;;;7.03;;
9124;SDS011;4597;48.730;9.114;2022-12-20T13:15:26;7.80;;;7.10;;
9124;SDS011;4597;48.730;9.114;2022-12-20T13:17:51;18.03;;;14.30;;
9124;SDS011;4597;48.730;9.114;2022-12-20T13:20:41;14.87;;;12.70;;
9124;SDS011;4597;48.730;9.114;2022-12-20T13:25:37;16.67;;;13.60;;
9124;SDS011;4597;48.730;9.114;2022-12-20T13:28:53;19.23;;;15.40;;
9124;SDS011;4597;48.730;9.114;2022-12-20T13:33:38;17.83;;;14.33;;
9124;SDS011;4597;48.730;9.114;2022-12-20T13:38:39;9.03;;;8.00;;
9124;SDS011;4597;48.730;9.114;2022-12-20T13:41:31;4.77;;;4.30;;
9124;SDS011;4597;48.730;9.114;2022-12-20T13:44:02;3.83;;;3.43;;
9124;SDS011;4597;48.730;9.114;2022-12-20T13:46:49;3.50;;;3.20;;
9124;SDS011;4597;48.730;9.114;2022-12-20T13:49:28;3.53;;;2.80;;
9124;SDS011;4597;48.730;9.114;2022-12-20T13:52:11;4.07;;;3.23;;
9124;SDS011;4597;48.730;9.114;2022-12-20T13:54:44;3.30;;;3.00;;
9124;SDS011;4597;48.730;9.114;2022-12-20T13:57:17;3.10;;;2.80;;
9124;SDS011;4597;48.730;9.114;2022-12-20T13:59:56;4.47;;;3.00;;
9124;SDS011;4597;48.730;9.114;2022-12-20T14:02:26;3.80;;;3.30;;
9124;SDS011;4597;48.730;9.114;2022-12-20T14:05:01;4.20;;;3.37;;
9124;SDS011;4597;48.730;9.114;2022-12-20T14:07:32;4.43;;;3.50;;
9124;SDS011;4597;48.730;9.114;2022-12-20T14:09:59;5.47;;;3.97;;
9124;SDS011;4597;48.730;9.114;2022-12-20T14:12:26;9.23;;;7.40;;
9124;SDS011;4597;48.730;9.114;2022-12-20T14:14:53;9.73;;;7.60;;
9124;SDS011;4597;48.730;9.114;2022-12-20T14:25:26;5.33;;;4.57;;
9124;SDS011;4597;48.730;9.114;2022-12-20T14:27:59;4.50;;;4.07;;
9124;SDS011;4597;48.730;9.114;2022-12-20T14:30:25;3.03;;;2.80;;
9124;SDS011;4597;48.730;9.114;2022-12-20T14:32:54;3.67;;;3.03;;
9124;SDS011;4597;48.730;9.114;2022-12-20T14:35:20;3.80;;;3.50;;
9124;SDS011;4597;48.730;9.114;2022-12-20T14:37:59;5.67;;;4.17;;
9124;SDS011;4597;48.730;9.114;2022-12-20T14:40:26;6.43;;;5.50;;
9124;SDS011;4597;48.730;9.114;2022-12-20T14:42:52;7.17;;;5.83;;
9124;SDS011;4597;48.730;9.114;2022-12-20T14:45:20;9.43;;;7.70;;
9124;SDS011;4597;48.730;9.114;2022-12-20T14:47:55;14.63;;;11.97;;
9124;SDS011;4597;48.730;9.114;2022-12-20T14:50:28;24.50;;;17.00;;
9124;SDS011;4597;48.730;9.114;2022-12-20T14:52:59;17.80;;;13.43;;
9124;SDS011;4597;48.730;9.114;2022-12-20T14:55:32;16.33;;;13.57;;
9124;SDS011;4597;48.730;9.114;2022-12-20T14:58:00;16.13;;;12.53;;
9124;SDS011;4597;48.730;9.114;2022-12-20T15:00:30;14.63;;;12.50;;
9124;SDS011;4597;48.730;9.114;2022-12-20T15:10:42;12.63;;;9.83;;
9124;SDS011;4597;48.730;9.114;2022-12-20T15:13:13;9.73;;;8.70;;
9124;SDS011;4597;48.730;9.114;2022-12-20T15:15:41;13.03;;;9.93;;
9124;SDS011;4597;48.730;9.114;2022-12-20T15:18:10;14.50;;;10.97;;
9124;SDS011;4597;48.730;9.114;2022-12-20T15:20:37;14.17;;;12.70;;
9124;SDS011;4597;48.730;9.114;2022-12-20T15:23:04;17.77;;;14.00;;
9124;SDS011;4597;48.730;9.114;2022-12-20T15:25:31;16.40;;;14.67;;
9124;SDS011;4597;48.730;9.114;2022-12-20T15:28:00;17.07;;;13.60;;
9124;SDS011;4597;48.730;9.114;2022-12-20T15:30:26;15.87;;;12.80;;
9124;SDS011;4597;48.730;9.114;2022-12-20T15:32:51;14.70;;;12.97;;
9124;SDS011;4597;48.730;9.114;2022-12-20T15:35:17;14.70;;;12.50;;
9124;SDS011;4597;48.730;9.114;2022-12-20T15:37:42;13.00;;;11.63;;
9124;SDS011;4597;48.730;9.114;2022-12-20T15:40:11;13.30;;;11.43;;
9124;SDS011;4597;48.730;9.114;2022-12-20T15:42:38;13.97;;;10.90;;
9124;SDS011;4597;48.730;9.114;2022-12-20T15:45:10;13.27;;;9.87;;
9124;SDS011;4597;48.730;9.114;2022-12-20T15:47:37;14.13;;;9.77;;
9124;SDS011;4597;48.730;9.114;2022-12-20T15:50:02;9.73;;;8.73;;
9124;SDS011;4597;48.730;9.114;2022-12-20T15:52:29;9.27;;;8.00;;
9124;SDS011;4597;48.730;9.114;2022-12-20T15:54:55;9.77;;;8.30;;
9124;SDS011;4597;48.730;9.114;2022-12-20T15:57:20;11.77;;;8.90;;
9124;SDS011;4597;48.730;9.114;2022-12-20T15:59:46;10.70;;;8.70;;
9124;SDS011;4597;48.730;9.114;2022-12-20T16:04:49;7.73;;;6.87;;
9124;SDS011;4597;48.730;9.114;2022-12-20T16:07:15;7.67;;;6.57;;
9124;SDS011;4597;48.730;9.114;2022-12-20T16:09:41;9.10;;;6.83;;
9124;SDS011;4597;48.730;9.114;2022-12-20T16:12:14;7.00;;;6.17;;
9124;SDS011;4597;48.730;9.114;2022-12-20T16:14:41;9.97;;;6.17;;
9124;SDS011;4597;48.730;9.114;2022-12-20T16:17:13;6.23;;;5.13;;
9124;SDS011;4597;48.730;9.114;2022-12-20T16:19:40;5.60;;;4.67;;
9124;SDS011;4597;48.730;9.114;2022-12-20T16:22:24;4.87;;;4.17;;
9124;SDS011;4597;48.730;9.114;2022-12-20T16:24:50;4.40;;;3.90;;
9124;SDS011;4597;48.730;9.114;2022-12-20T16:27:16;6.20;;;4.77;;
9124;SDS011;4597;48.730;9.114;2022-12-20T16:29:41;4.93;;;4.40;;
9124;SDS011;4597;48.730;9.114;2022-12-20T16:32:13;4.50;;;4.10;;
9124;SDS011;4597;48.730;9.114;2022-12-20T16:34:40;5.23;;;4.70;;
9124;SDS011;4597;48.730;9.114;2022-12-20T16:37:06;5.77;;;5.13;;
9124;SDS011;4597;48.730;9.114;2022-12-20T16:39:31;14.90;;;11.57;;
9124;SDS011;4597;48.730;9.114;2022-12-20T16:41:57;15.40;;;12.63;;
9124;SDS011;4597;48.730;9.114;2022-12-20T16:44:24;13.77;;;11.93;;
9124;SDS011;4597;48.730;9.114;2022-12-20T16:46:49;15.27;;;11.47;;